Time;durP1;ratioP1;P1;durP2;ratioP2;P2;SDS_P1;SDS_P2;PMS_P1;PMS_P2;Temp;Humidity;BMP_temperature;BMP_pressure;BME280_temperature;BME280_humidity;BME280_pressure;Samples;Min_cycle;Max_cycle;Signal;HPM_P1;HPM_P2
2021/03/19 00:00:48;;;;;;;0.10;0.10;;;;;;;;;;5091356;28;20167;-71
2021/03/19 00:03:14;;;;;;;0.30;0.30;;;;;;;;;;5091364;28;20179;-71
2021/03/19 00:05:40;;;;;;;0.10;0.10;;;;;;;;;;5091240;28;20225;-71
2021/03/19 00:08:06;;;;;;;0.40;0.40;;;;;;;;;;5091313;28;20164;-71
2021/03/19 00:10:33;;;;;;;0.10;0.10;;;;;;;;;;5073207;28;20156;-71
2021/03/19 00:13:01;;;;;;;0.10;0.10;;;;;;;;;;5091188;28;20157;-71
2021/03/19 00:15:29;;;;;;;0.10;0.10;;;;;;;;;;5091115;28;20223;-71
2021/03/19 00:17:56;;;;;;;0.10;0.10;;;;;;;;;;5091127;28;20200;-71
2021/03/19 00:20:23;;;;;;;0.10;0.10;;;;;;;;;;5073008;28;20171;-71
2021/03/19 00:22:49;;;;;;;0.10;0.10;;;;;;;;;;5091013;28;20191;-71
2021/03/19 00:25:16;;;;;;;0.20;0.20;;;;;;;;;;5072965;28;20215;-71
2021/03/19 00:27:42;;;;;;;0.35;0.35;;;;;;;;;;5090909;28;20195;-70
2021/03/19 00:30:11;;;;;;;0.13;0.13;;;;;;;;;;5090552;28;20251;-70
2021/03/19 00:32:38;;;;;;;0.80;0.80;;;;;;;;;;5072785;28;20164;-70
2021/03/19 00:35:05;;;;;;;1.05;1.05;;;;;;;;;;5090837;28;20171;-71
2021/03/19 00:37:32;;;;;;;0.10;0.10;;;;;;;;;;5090647;28;20266;-70
2021/03/19 00:39:58;;;;;;;0.30;0.30;;;;;;;;;;5090611;28;20171;-71
2021/03/19 00:42:24;;;;;;;0.30;0.30;;;;;;;;;;5072645;28;20168;-71
2021/03/19 00:44:50;;;;;;;0.10;0.10;;;;;;;;;;5090597;28;20161;-71
2021/03/19 00:47:16;;;;;;;0.10;0.10;;;;;;;;;;5090230;28;20287;-71
2021/03/19 00:49:42;;;;;;;0.10;0.10;;;;;;;;;;5090406;28;20192;-71
2021/03/19 00:52:08;;;;;;;0.10;0.10;;;;;;;;;;5072282;28;20180;-71
2021/03/19 00:54:35;;;;;;;0.10;0.10;;;;;;;;;;5090257;28;20161;-71
2021/03/19 00:57:01;;;;;;;0.45;0.45;;;;;;;;;;5089883;28;20206;-71
2021/03/19 00:59:27;;;;;;;0.10;0.10;;;;;;;;;;5090270;28;20574;-70
2021/03/19 01:01:53;;;;;;;0.40;0.40;;;;;;;;;;5090247;28;20216;-70
2021/03/19 01:04:19;;;;;;;0.30;0.30;;;;;;;;;;5072173;28;20206;-71
2021/03/19 01:06:46;;;;;;;0.50;0.50;;;;;;;;;;5090079;28;20196;-71
2021/03/19 01:09:12;;;;;;;0.10;0.10;;;;;;;;;;5090019;28;20196;-70
2021/03/19 01:11:38;;;;;;;0.10;0.10;;;;;;;;;;5072104;28;20214;-71
2021/03/19 01:14:05;;;;;;;0.10;0.10;;;;;;;;;;5090053;28;20160;-71
2021/03/19 01:16:34;;;;;;;0.10;0.10;;;;;;;;;;5089879;28;20199;-70
2021/03/19 01:19:02;;;;;;;0.17;0.17;;;;;;;;;;5089874;28;20203;-71
2021/03/19 01:21:28;;;;;;;0.10;0.10;;;;;;;;;;5089969;28;20164;-71
2021/03/19 01:23:54;;;;;;;0.30;0.30;;;;;;;;;;5071899;28;20645;-70
2021/03/19 01:26:21;;;;;;;1.33;1.27;;;;;;;;;;5089702;28;20200;-70
2021/03/19 01:28:47;;;;;;;0.10;0.10;;;;;;;;;;5089578;28;20225;-71
2021/03/19 01:31:14;;;;;;;0.30;0.30;;;;;;;;;;5089698;28;20152;-71
2021/03/19 01:33:41;;;;;;;0.10;0.10;;;;;;;;;;5089716;28;20644;-71
2021/03/19 01:36:07;;;;;;;0.65;0.65;;;;;;;;;;5071653;28;20192;-71
2021/03/19 01:38:34;;;;;;;0.10;0.10;;;;;;;;;;5071609;28;20176;-71
2021/03/19 01:41:01;;;;;;;0.10;0.10;;;;;;;;;;5089449;28;20168;-71
2021/03/19 01:43:30;;;;;;;0.10;0.10;;;;;;;;;;5089593;28;20168;-71
2021/03/19 01:46:15;;;;;;;0.20;0.20;;;;;;;;;;5089304;28;20174;-71
2021/03/19 01:49:00;;;;;;;0.10;0.10;;;;;;;;;;5071322;28;20249;-71
2021/03/19 01:51:45;;;;;;;0.25;0.25;;;;;;;;;;5089390;28;20542;-71
2021/03/19 01:54:30;;;;;;;0.10;0.10;;;;;;;;;;5071271;28;20164;-71
2021/03/19 01:57:14;;;;;;;0.10;0.10;;;;;;;;;;5089280;28;20191;-70
2021/03/19 01:59:59;;;;;;;0.10;0.10;;;;;;;;;;5071302;28;20197;-70
2021/03/19 02:02:44;;;;;;;0.15;0.15;;;;;;;;;;5089304;28;20167;-70
2021/03/19 02:05:29;;;;;;;0.10;0.10;;;;;;;;;;5089243;28;20164;-71
2021/03/19 02:08:13;;;;;;;0.32;0.32;;;;;;;;;;5088391;28;20206;-70
2021/03/19 02:10:58;;;;;;;0.10;0.10;;;;;;;;;;5089192;28;20200;-71
2021/03/19 02:13:42;;;;;;;1.20;1.20;;;;;;;;;;5089063;28;20176;-71
2021/03/19 02:16:27;;;;;;;0.38;0.38;;;;;;;;;;5089082;28;20199;-70
2021/03/19 02:19:12;;;;;;;0.10;0.10;;;;;;;;;;5089118;28;20160;-71
2021/03/19 02:21:56;;;;;;;0.10;0.10;;;;;;;;;;5089099;28;20253;-71
2021/03/19 02:24:41;;;;;;;0.10;0.10;;;;;;;;;;5089139;28;20158;-70
2021/03/19 02:27:25;;;;;;;0.10;0.10;;;;;;;;;;5088999;28;20195;-71
2021/03/19 02:30:10;;;;;;;0.30;0.30;;;;;;;;;;5070887;28;20287;-71
2021/03/19 02:32:37;;;;;;;0.47;0.47;;;;;;;;;;5088949;28;20227;-70
2021/03/19 02:35:08;;;;;;;0.10;0.10;;;;;;;;;;5086339;28;20165;-71
2021/03/19 02:37:36;;;;;;;0.10;0.10;;;;;;;;;;5050750;28;20184;-71
2021/03/19 02:40:02;;;;;;;0.43;0.43;;;;;;;;;;5068822;28;20165;-71
2021/03/19 02:42:31;;;;;;;1.08;1.00;;;;;;;;;;5068969;28;20165;-70
2021/03/19 02:44:58;;;;;;;0.15;0.15;;;;;;;;;;5068280;28;20168;-70
2021/03/19 02:47:24;;;;;;;0.10;0.10;;;;;;;;;;5068634;28;20220;-70
2021/03/19 02:49:51;;;;;;;0.10;0.10;;;;;;;;;;5068898;28;20196;-70
2021/03/19 02:52:19;;;;;;;0.10;0.10;;;;;;;;;;5068922;28;20187;-70
2021/03/19 02:54:45;;;;;;;0.08;0.08;;;;;;;;;;5068934;28;20180;-70
2021/03/19 02:57:11;;;;;;;0.10;0.10;;;;;;;;;;5050877;28;20783;-70
2021/03/19 02:59:37;;;;;;;0.10;0.10;;;;;;;;;;5068889;28;20221;-70
2021/03/19 03:02:03;;;;;;;0.30;0.30;;;;;;;;;;5068768;28;20168;-70
2021/03/19 03:04:30;;;;;;;0.13;0.13;;;;;;;;;;5050813;28;20191;-71
2021/03/19 03:06:57;;;;;;;0.45;0.45;;;;;;;;;;5068706;28;20192;-70
2021/03/19 03:09:25;;;;;;;0.13;0.13;;;;;;;;;;5050615;28;20287;-70
2021/03/19 03:11:52;;;;;;;0.10;0.10;;;;;;;;;;5068649;28;20164;-70
2021/03/19 03:14:19;;;;;;;0.10;0.10;;;;;;;;;;5068589;28;20223;-70
2021/03/19 03:16:47;;;;;;;0.10;0.10;;;;;;;;;;5068668;28;20204;-70
2021/03/19 03:19:15;;;;;;;0.10;0.10;;;;;;;;;;5069487;28;20161;-70
2021/03/19 03:21:42;;;;;;;0.10;0.10;;;;;;;;;;5072261;28;20165;-70
2021/03/19 03:24:09;;;;;;;0.85;0.85;;;;;;;;;;5072480;28;20169;-70
2021/03/19 03:26:35;;;;;;;0.10;0.10;;;;;;;;;;5072154;28;20228;-70
2021/03/19 03:29:02;;;;;;;0.10;0.10;;;;;;;;;;5072059;28;20279;-70
2021/03/19 03:31:28;;;;;;;0.10;0.10;;;;;;;;;;5072006;28;20640;-71
2021/03/19 03:33:54;;;;;;;0.60;0.55;;;;;;;;;;5053591;28;20226;-69
2021/03/19 03:36:20;;;;;;;0.32;0.32;;;;;;;;;;5071807;28;20561;-71
2021/03/19 03:38:47;;;;;;;0.10;0.10;;;;;;;;;;5071954;28;20161;-70
2021/03/19 03:41:16;;;;;;;0.30;0.30;;;;;;;;;;5071710;28;20165;-70
2021/03/19 03:43:42;;;;;;;0.20;0.20;;;;;;;;;;5071708;28;20169;-71
2021/03/19 03:46:10;;;;;;;0.10;0.10;;;;;;;;;;5071707;28;20197;-70
2021/03/19 03:48:37;;;;;;;0.17;0.17;;;;;;;;;;5071407;28;20247;-71
2021/03/19 03:51:04;;;;;;;0.10;0.10;;;;;;;;;;5053758;28;20188;-71
2021/03/19 03:53:30;;;;;;;0.10;0.10;;;;;;;;;;5071650;28;20622;-70
2021/03/19 03:55:57;;;;;;;0.10;0.10;;;;;;;;;;5071210;28;20193;-70
2021/03/19 03:58:23;;;;;;;0.10;0.10;;;;;;;;;;5053651;28;20165;-71
2021/03/19 04:00:50;;;;;;;0.73;0.73;;;;;;;;;;5071487;28;20157;-71
2021/03/19 04:03:16;;;;;;;0.20;0.20;;;;;;;;;;5053509;28;20218;-71
2021/03/19 04:05:44;;;;;;;0.45;0.45;;;;;;;;;;5071390;28;20188;-71
2021/03/19 04:08:11;;;;;;;0.20;0.20;;;;;;;;;;5071211;28;20160;-71
2021/03/19 04:10:38;;;;;;;0.10;0.10;;;;;;;;;;5071293;28;20165;-73
2021/03/19 04:13:05;;;;;;;0.10;0.10;;;;;;;;;;5053429;28;20172;-71
2021/03/19 04:15:32;;;;;;;0.13;0.13;;;;;;;;;;5071139;28;20231;-71
2021/03/19 04:18:00;;;;;;;0.15;0.15;;;;;;;;;;5071210;28;20181;-71
2021/03/19 04:20:26;;;;;;;0.10;0.10;;;;;;;;;;5070952;28;20172;-71
2021/03/19 04:22:53;;;;;;;0.10;0.10;;;;;;;;;;5071203;28;20161;-71
2021/03/19 04:25:20;;;;;;;0.10;0.10;;;;;;;;;;5071000;28;20197;-71
2021/03/19 04:28:07;;;;;;;0.10;0.10;;;;;;;;;;5070979;28;20173;-71
2021/03/19 04:30:37;;;;;;;0.20;0.20;;;;;;;;;;5070221;28;20204;-71
2021/03/19 04:33:17;;;;;;;0.10;0.10;;;;;;;;;;5053060;28;20179;-71
2021/03/19 04:35:43;;;;;;;0.40;0.40;;;;;;;;;;5070809;28;20192;-71
2021/03/19 04:38:11;;;;;;;0.28;0.28;;;;;;;;;;5070780;28;20164;-70
2021/03/19 04:40:41;;;;;;;8.05;1.05;;;;;;;;;;5070837;28;20172;-73
2021/03/19 04:43:07;;;;;;;0.60;0.45;;;;;;;;;;5053982;28;20173;-70
2021/03/19 04:45:36;;;;;;;0.10;0.10;;;;;;;;;;5071107;28;20212;-70
2021/03/19 04:48:03;;;;;;;0.10;0.10;;;;;;;;;;5070293;28;20219;-70
2021/03/19 04:50:29;;;;;;;0.82;0.82;;;;;;;;;;5070310;28;20188;-71
2021/03/19 04:52:55;;;;;;;1.38;1.35;;;;;;;;;;5070590;28;20161;-70
2021/03/19 04:55:21;;;;;;;0.85;0.85;;;;;;;;;;5052338;28;20216;-70
2021/03/19 04:57:47;;;;;;;0.47;0.43;;;;;;;;;;5052358;28;20176;-71
2021/03/19 05:00:14;;;;;;;0.30;0.30;;;;;;;;;;5070249;28;20157;-70
2021/03/19 05:02:42;;;;;;;0.10;0.10;;;;;;;;;;5052122;28;20192;-70
2021/03/19 05:05:15;;;;;;;1.23;1.17;;;;;;;;;;5070228;28;20265;-71
2021/03/19 05:07:41;;;;;;;1.10;1.00;;;;;;;;;;5070085;28;20220;-71
2021/03/19 05:10:09;;;;;;;0.15;0.15;;;;;;;;;;5052006;28;20212;-70
2021/03/19 05:12:35;;;;;;;0.17;0.17;;;;;;;;;;5052218;28;20169;-70
2021/03/19 05:15:03;;;;;;;0.10;0.10;;;;;;;;;;5069853;28;20164;-70
2021/03/19 05:17:30;;;;;;;0.13;0.13;;;;;;;;;;5051746;28;20195;-70
2021/03/19 05:19:58;;;;;;;0.13;0.13;;;;;;;;;;5051872;28;20180;-70
2021/03/19 05:22:25;;;;;;;0.52;0.52;;;;;;;;;;5069884;28;20166;-71
2021/03/19 05:24:51;;;;;;;0.35;0.35;;;;;;;;;;5052238;28;20168;-71
2021/03/19 05:27:18;;;;;;;0.40;0.40;;;;;;;;;;5051975;28;20180;-71
2021/03/19 05:29:44;;;;;;;0.38;0.38;;;;;;;;;;5069575;28;20244;-71
2021/03/19 05:32:11;;;;;;;0.10;0.10;;;;;;;;;;5051787;28;20168;-71
2021/03/19 05:34:37;;;;;;;2.65;2.53;;;;;;;;;;5069735;28;20186;-71
2021/03/19 05:37:03;;;;;;;0.20;0.20;;;;;;;;;;5069385;28;20215;-71
2021/03/19 05:39:30;;;;;;;0.10;0.10;;;;;;;;;;5069499;28;20218;-72
2021/03/19 05:41:56;;;;;;;0.25;0.25;;;;;;;;;;5051422;28;20187;-71
2021/03/19 05:44:25;;;;;;;1.33;0.68;;;;;;;;;;5050311;28;20168;-70
2021/03/19 05:46:52;;;;;;;0.63;0.63;;;;;;;;;;5069259;28;20216;-70
2021/03/19 05:49:26;;;;;;;0.10;0.10;;;;;;;;;;5069745;28;20696;-71
2021/03/19 05:51:54;;;;;;;0.10;0.10;;;;;;;;;;5051872;28;20165;-71
2021/03/19 05:54:36;;;;;;;0.10;0.10;;;;;;;;;;5069229;28;20248;-70
2021/03/19 05:57:08;;;;;;;0.17;0.17;;;;;;;;;;5069301;28;20188;-70
2021/03/19 05:59:37;;;;;;;0.13;0.13;;;;;;;;;;5051538;28;20597;-70
2021/03/19 06:02:17;;;;;;;0.10;0.10;;;;;;;;;;5068770;28;20157;-70
2021/03/19 06:04:43;;;;;;;0.20;0.20;;;;;;;;;;5069185;28;20165;-70
2021/03/19 06:07:10;;;;;;;0.17;0.17;;;;;;;;;;5069063;28;20203;-70
2021/03/19 06:09:41;;;;;;;0.32;0.32;;;;;;;;;;5068174;28;20203;-70
2021/03/19 06:12:15;;;;;;;0.45;0.45;;;;;;;;;;5068941;28;20145;-70
2021/03/19 06:14:53;;;;;;;0.10;0.10;;;;;;;;;;5068880;28;20178;-71
2021/03/19 06:17:29;;;;;;;0.38;0.38;;;;;;;;;;5069041;28;20210;-70
2021/03/19 06:19:55;;;;;;;0.85;0.85;;;;;;;;;;5069002;28;20200;-70
2021/03/19 06:22:25;;;;;;;0.20;0.20;;;;;;;;;;5050777;28;20179;-71
2021/03/19 06:24:57;;;;;;;0.30;0.30;;;;;;;;;;5065642;28;20185;-70
2021/03/19 06:27:30;;;;;;;4.20;1.00;;;;;;;;;;5066043;28;20165;-70
2021/03/19 06:29:58;;;;;;;0.73;0.73;;;;;;;;;;5067108;28;20195;-70
2021/03/19 06:32:26;;;;;;;0.95;0.55;;;;;;;;;;5067629;28;20195;-70
2021/03/19 06:35:11;;;;;;;0.25;0.25;;;;;;;;;;5065476;28;20252;-70
2021/03/19 06:37:41;;;;;;;0.40;0.40;;;;;;;;;;5065298;28;20195;-70
2021/03/19 06:40:23;;;;;;;0.10;0.10;;;;;;;;;;5067933;28;20207;-70
2021/03/19 06:42:50;;;;;;;0.15;0.15;;;;;;;;;;5045484;28;20227;-70
2021/03/19 06:45:16;;;;;;;0.80;0.80;;;;;;;;;;5065871;28;20279;-70
2021/03/19 06:47:47;;;;;;;0.35;0.35;;;;;;;;;;5050881;28;20289;-70
2021/03/19 06:50:22;;;;;;;0.10;0.10;;;;;;;;;;5010836;28;20233;-71
2021/03/19 06:52:49;;;;;;;0.10;0.10;;;;;;;;;;5028717;28;20534;-70
2021/03/19 06:55:52;;;;;;;1.35;1.35;;;;;;;;;;5031134;28;20189;-71
2021/03/19 06:58:36;;;;;;;0.10;0.10;;;;;;;;;;4991385;28;20286;-71
2021/03/19 07:01:04;;;;;;;0.10;0.10;;;;;;;;;;5029947;28;20190;-71
2021/03/19 07:03:45;;;;;;;0.10;0.10;;;;;;;;;;5032415;28;20622;-71
2021/03/19 07:06:30;;;;;;;0.20;0.20;;;;;;;;;;5032565;28;20263;-71
2021/03/19 07:09:15;;;;;;;0.00;0.00;;;;;;;;;;5032347;28;20194;-70
2021/03/19 07:11:44;;;;;;;0.10;0.10;;;;;;;;;;5032387;28;20154;-71
2021/03/19 07:14:10;;;;;;;1.60;1.50;;;;;;;;;;5032204;28;20159;-71
2021/03/19 07:16:42;;;;;;;0.10;0.10;;;;;;;;;;5014281;28;20225;-70
2021/03/19 07:19:22;;;;;;;0.75;0.75;;;;;;;;;;5032248;28;20193;-71
2021/03/19 07:21:58;;;;;;;0.20;0.20;;;;;;;;;;5032299;28;20293;-71
2021/03/19 07:24:30;;;;;;;1.30;1.17;;;;;;;;;;5032151;28;20172;-71
2021/03/19 07:27:15;;;;;;;0.10;0.10;;;;;;;;;;5014680;28;20229;-71
2021/03/19 07:29:41;;;;;;;0.10;0.10;;;;;;;;;;5031933;28;20193;-71
2021/03/19 07:32:26;;;;;;;0.10;0.10;;;;;;;;;;5014106;28;20174;-71
2021/03/19 07:35:01;;;;;;;0.10;0.10;;;;;;;;;;5031679;28;20191;-71
2021/03/19 07:37:44;;;;;;;0.10;0.10;;;;;;;;;;5014110;28;20170;-72
2021/03/19 07:40:10;;;;;;;0.15;0.15;;;;;;;;;;5031925;28;20181;-71
2021/03/19 07:42:47;;;;;;;1.67;1.08;;;;;;;;;;5031673;28;20193;-71
2021/03/19 07:45:32;;;;;;;0.00;0.00;;;;;;;;;;5014107;28;20202;-71
2021/03/19 07:48:04;;;;;;;0.00;0.00;;;;;;;;;;5049004;28;20242;-71
2021/03/19 07:50:36;;;;;;;1.40;1.40;;;;;;;;;;5075985;28;20236;-71
2021/03/19 07:53:03;;;;;;;0.17;0.17;;;;;;;;;;5051038;28;20157;-70
2021/03/19 07:55:32;;;;;;;0.25;0.25;;;;;;;;;;5063047;28;20195;-72
2021/03/19 07:58:05;;;;;;;0.32;0.32;;;;;;;;;;5052792;28;20253;-70
2021/03/19 08:00:33;;;;;;;1.77;1.67;;;;;;;;;;5032820;28;20177;-66
2021/03/19 08:02:59;;;;;;;0.50;0.50;;;;;;;;;;5050702;28;20166;-66
2021/03/19 08:05:34;;;;;;;0.17;0.17;;;;;;;;;;5031954;28;20205;-66
2021/03/19 08:08:09;;;;;;;0.82;0.77;;;;;;;;;;5049463;28;20213;-66
2021/03/19 08:10:44;;;;;;;3.97;1.45;;;;;;;;;;5053029;28;20207;-67
2021/03/19 08:13:25;;;;;;;6.97;1.48;;;;;;;;;;5051795;28;20176;-66
2021/03/19 08:15:57;;;;;;;0.20;0.20;;;;;;;;;;5052939;28;20165;-64
2021/03/19 08:18:26;;;;;;;0.40;0.40;;;;;;;;;;5049396;28;20189;-67
2021/03/19 08:21:02;;;;;;;0.52;0.52;;;;;;;;;;5065756;28;20199;-67
2021/03/19 08:23:31;;;;;;;0.50;0.50;;;;;;;;;;5069466;28;20196;-67
2021/03/19 08:25:57;;;;;;;0.82;0.55;;;;;;;;;;5070856;28;20161;-66
2021/03/19 08:28:33;;;;;;;0.57;0.45;;;;;;;;;;5070409;28;20677;-67
2021/03/19 08:31:20;;;;;;;2.42;0.90;;;;;;;;;;5052621;28;20179;-66
2021/03/19 08:33:47;;;;;;;0.10;0.10;;;;;;;;;;5059388;28;20212;-66
2021/03/19 08:36:19;;;;;;;0.68;0.68;;;;;;;;;;5065668;28;20180;-66
2021/03/19 08:38:47;;;;;;;0.13;0.13;;;;;;;;;;5052294;28;20192;-66
2021/03/19 08:41:19;;;;;;;0.10;0.10;;;;;;;;;;5060366;28;20197;-66
2021/03/19 08:43:48;;;;;;;0.05;0.05;;;;;;;;;;5032093;28;20197;-65
2021/03/19 08:46:18;;;;;;;2.35;0.82;;;;;;;;;;5049526;28;20162;-66
2021/03/19 08:48:48;;;;;;;0.73;0.45;;;;;;;;;;5033632;28;20189;-65
2021/03/19 08:51:21;;;;;;;0.47;0.40;;;;;;;;;;5070113;28;20157;-66
2021/03/19 08:54:24;;;;;;;0.60;0.47;;;;;;;;;;5070007;28;20196;-66
2021/03/19 08:56:55;;;;;;;0.43;0.43;;;;;;;;;;4987691;28;20695;-66
2021/03/19 08:59:38;;;;;;;0.10;0.10;;;;;;;;;;4989065;28;20190;-66
2021/03/19 09:02:04;;;;;;;0.47;0.47;;;;;;;;;;4988791;28;20707;-65
2021/03/19 09:04:49;;;;;;;0.75;0.75;;;;;;;;;;4989131;28;20207;-65
2021/03/19 09:07:27;;;;;;;0.10;0.10;;;;;;;;;;4977463;28;20175;-66
2021/03/19 09:09:58;;;;;;;0.47;0.47;;;;;;;;;;4988499;28;20199;-66
2021/03/19 09:12:50;;;;;;;1.05;1.05;;;;;;;;;;4988578;28;20200;-66
2021/03/19 09:15:16;;;;;;;0.30;0.30;;;;;;;;;;4988254;28;20184;-66
2021/03/19 09:17:48;;;;;;;0.08;0.08;;;;;;;;;;4987184;28;20241;-66
2021/03/19 09:20:26;;;;;;;1.10;0.77;;;;;;;;;;4988539;28;20191;-65
2021/03/19 09:23:14;;;;;;;0.85;0.85;;;;;;;;;;4987995;28;20289;-65
2021/03/19 09:25:49;;;;;;;0.30;0.30;;;;;;;;;;4988519;28;20198;-65
2021/03/19 09:28:25;;;;;;;0.77;0.75;;;;;;;;;;4987151;28;20171;-66
2021/03/19 09:31:01;;;;;;;0.10;0.10;;;;;;;;;;5031896;28;20278;-65
2021/03/19 09:33:48;;;;;;;0.38;0.38;;;;;;;;;;5069312;28;20204;-65
2021/03/19 09:36:32;;;;;;;0.20;0.20;;;;;;;;;;5051556;28;20668;-65
2021/03/19 09:38:59;;;;;;;0.55;0.30;;;;;;;;;;5068173;28;20163;-67
2021/03/19 09:41:44;;;;;;;0.65;0.65;;;;;;;;;;5068405;28;20176;-65
2021/03/19 09:44:36;;;;;;;0.22;0.22;;;;;;;;;;5049088;28;20172;-66
2021/03/19 09:47:02;;;;;;;0.10;0.10;;;;;;;;;;5045103;28;20240;-65
2021/03/19 09:49:29;;;;;;;0.10;0.10;;;;;;;;;;5030327;28;20284;-65
2021/03/19 09:51:55;;;;;;;0.20;0.20;;;;;;;;;;5053807;28;20198;-65
2021/03/19 09:54:27;;;;;;;0.13;0.13;;;;;;;;;;5089094;28;20235;-65
2021/03/19 09:56:59;;;;;;;0.30;0.30;;;;;;;;;;5088796;28;20220;-65
2021/03/19 09:59:27;;;;;;;0.40;0.40;;;;;;;;;;5088849;28;20219;-66
2021/03/19 10:01:53;;;;;;;0.40;0.40;;;;;;;;;;5088142;28;20203;-65
2021/03/19 10:04:28;;;;;;;0.10;0.10;;;;;;;;;;5070963;28;20175;-65
2021/03/19 10:06:54;;;;;;;0.20;0.20;;;;;;;;;;5088876;28;20163;-65
2021/03/19 10:09:25;;;;;;;0.38;0.38;;;;;;;;;;5088267;28;20597;-65
2021/03/19 10:11:58;;;;;;;0.00;0.00;;;;;;;;;;5063022;28;20310;-65
2021/03/19 10:14:29;;;;;;;0.05;0.05;;;;;;;;;;5067713;28;20181;-67
2021/03/19 10:17:09;;;;;;;0.00;0.00;;;;;;;;;;5050772;28;20199;-66
2021/03/19 10:19:39;;;;;;;0.10;0.10;;;;;;;;;;5068847;28;20156;-66
2021/03/19 10:22:07;;;;;;;0.10;0.10;;;;;;;;;;5049671;28;20295;-67
2021/03/19 10:24:33;;;;;;;0.10;0.10;;;;;;;;;;5068535;28;20169;-66
2021/03/19 10:27:02;;;;;;;1.35;0.30;;;;;;;;;;5050676;28;20176;-66
2021/03/19 10:29:31;;;;;;;1.10;0.45;;;;;;;;;;5051977;28;20226;-66
2021/03/19 10:31:58;;;;;;;0.05;0.05;;;;;;;;;;5072454;28;20188;-66
2021/03/19 10:34:31;;;;;;;0.50;0.50;;;;;;;;;;5071909;28;20156;-66
2021/03/19 10:37:00;;;;;;;0.10;0.10;;;;;;;;;;5051623;28;20184;-66
2021/03/19 10:39:30;;;;;;;0.00;0.00;;;;;;;;;;5053756;28;20215;-66
2021/03/19 10:42:02;;;;;;;0.10;0.10;;;;;;;;;;5051331;28;20906;-66
2021/03/19 10:44:31;;;;;;;1.55;1.17;;;;;;;;;;5050833;28;20230;-66
2021/03/19 10:47:00;;;;;;;0.63;0.63;;;;;;;;;;5070343;28;20231;-67
2021/03/19 10:49:38;;;;;;;1.77;1.67;;;;;;;;;;5070464;28;20200;-65
2021/03/19 10:52:08;;;;;;;0.55;0.55;;;;;;;;;;5070283;28;20153;-65
2021/03/19 10:54:39;;;;;;;0.20;0.20;;;;;;;;;;5069747;28;20148;-65
2021/03/19 10:57:24;;;;;;;0.47;0.47;;;;;;;;;;5070845;28;20145;-65
2021/03/19 10:59:51;;;;;;;0.03;0.03;;;;;;;;;;5072273;28;20152;-65
2021/03/19 11:02:23;;;;;;;0.10;0.10;;;;;;;;;;5071842;28;20189;-65
2021/03/19 11:04:55;;;;;;;0.22;0.22;;;;;;;;;;5071462;28;20167;-64
2021/03/19 11:07:21;;;;;;;0.38;0.38;;;;;;;;;;5064064;28;20214;-64
2021/03/19 11:10:02;;;;;;;0.03;0.03;;;;;;;;;;5049071;28;20231;-65
2021/03/19 11:12:34;;;;;;;0.10;0.10;;;;;;;;;;5071765;28;20196;-64
2021/03/19 11:15:02;;;;;;;0.20;0.20;;;;;;;;;;5071293;28;20196;-65
2021/03/19 11:17:28;;;;;;;1.40;1.13;;;;;;;;;;5089051;28;20183;-65
2021/03/19 11:19:58;;;;;;;0.28;0.28;;;;;;;;;;5091559;28;20243;-64
2021/03/19 11:22:32;;;;;;;0.10;0.10;;;;;;;;;;5091453;28;20210;-65
2021/03/19 11:25:08;;;;;;;1.65;1.17;;;;;;;;;;5091736;28;20168;-65
2021/03/19 11:27:39;;;;;;;0.10;0.10;;;;;;;;;;5072663;28;20183;-64
2021/03/19 11:30:11;;;;;;;1.63;1.55;;;;;;;;;;5091681;28;20199;-65
2021/03/19 11:32:37;;;;;;;0.10;0.10;;;;;;;;;;5091183;28;20188;-65
2021/03/19 11:35:18;;;;;;;0.03;0.03;;;;;;;;;;5073696;28;20183;-65
2021/03/19 11:37:46;;;;;;;0.00;0.00;;;;;;;;;;5071851;28;20195;-65
2021/03/19 11:40:15;;;;;;;0.00;0.00;;;;;;;;;;5069363;28;20169;-65
2021/03/19 11:42:47;;;;;;;0.10;0.10;;;;;;;;;;5071627;28;20164;-64
2021/03/19 11:45:16;;;;;;;0.10;0.10;;;;;;;;;;5071186;28;20177;-65
2021/03/19 11:48:07;;;;;;;0.52;0.52;;;;;;;;;;5061520;28;20254;-65
2021/03/19 11:50:38;;;;;;;0.40;0.40;;;;;;;;;;5058125;28;20311;-67
2021/03/19 11:53:06;;;;;;;0.20;0.20;;;;;;;;;;5071093;28;20187;-66
2021/03/19 11:55:42;;;;;;;0.03;0.03;;;;;;;;;;5070966;28;20528;-66
2021/03/19 11:58:10;;;;;;;0.10;0.10;;;;;;;;;;5071061;28;20203;-66
2021/03/19 12:00:37;;;;;;;0.00;0.00;;;;;;;;;;5068832;28;20165;-65
2021/03/19 12:03:06;;;;;;;0.20;0.20;;;;;;;;;;5070994;28;20165;-66
2021/03/19 12:05:32;;;;;;;0.10;0.10;;;;;;;;;;5070731;28;20165;-66
2021/03/19 12:07:59;;;;;;;0.85;0.75;;;;;;;;;;5084925;28;20213;-66
2021/03/19 12:10:29;;;;;;;0.63;0.63;;;;;;;;;;5069739;28;20185;-66
2021/03/19 12:12:57;;;;;;;0.43;0.43;;;;;;;;;;5070762;28;20167;-65
2021/03/19 12:15:23;;;;;;;0.45;0.20;;;;;;;;;;5070517;28;20168;-65
2021/03/19 12:17:49;;;;;;;0.00;0.00;;;;;;;;;;5070591;28;20188;-65
2021/03/19 12:20:16;;;;;;;0.20;0.20;;;;;;;;;;5070889;28;20243;-66
2021/03/19 12:22:42;;;;;;;0.10;0.10;;;;;;;;;;5069632;28;20196;-66
2021/03/19 12:25:13;;;;;;;0.10;0.10;;;;;;;;;;5066607;28;20196;-66
2021/03/19 12:27:40;;;;;;;0.00;0.00;;;;;;;;;;5050935;28;20315;-66
2021/03/19 12:30:06;;;;;;;0.20;0.20;;;;;;;;;;5083136;28;20675;-66
2021/03/19 12:32:32;;;;;;;0.22;0.22;;;;;;;;;;5089736;28;20233;-66
2021/03/19 12:34:59;;;;;;;0.10;0.10;;;;;;;;;;5080964;28;20191;-66
2021/03/19 12:37:25;;;;;;;0.40;0.40;;;;;;;;;;5090510;28;20611;-65
2021/03/19 12:39:51;;;;;;;0.10;0.10;;;;;;;;;;5071339;28;20199;-67
2021/03/19 12:42:17;;;;;;;0.00;0.00;;;;;;;;;;5051852;28;20176;-65
2021/03/19 12:44:43;;;;;;;0.28;0.28;;;;;;;;;;5069511;28;20169;-64
2021/03/19 12:47:09;;;;;;;0.10;0.10;;;;;;;;;;5069741;28;20209;-65
2021/03/19 12:49:36;;;;;;;0.30;0.30;;;;;;;;;;5069808;28;20219;-65
2021/03/19 12:52:02;;;;;;;0.00;0.00;;;;;;;;;;5069328;28;20630;-64
2021/03/19 12:54:28;;;;;;;0.00;0.00;;;;;;;;;;5051288;28;20699;-64
2021/03/19 12:56:54;;;;;;;0.25;0.25;;;;;;;;;;5069709;28;20161;-65
2021/03/19 12:59:20;;;;;;;0.00;0.00;;;;;;;;;;5069826;28;20235;-65
2021/03/19 13:01:47;;;;;;;0.10;0.10;;;;;;;;;;5069969;28;20156;-65
2021/03/19 13:04:13;;;;;;;0.10;0.10;;;;;;;;;;5050462;28;20188;-65
2021/03/19 13:06:39;;;;;;;0.17;0.17;;;;;;;;;;5074934;28;20215;-65
2021/03/19 13:09:11;;;;;;;0.35;0.35;;;;;;;;;;5089827;28;20247;-65
2021/03/19 13:11:37;;;;;;;0.10;0.10;;;;;;;;;;5089877;28;20156;-65
2021/03/19 13:14:03;;;;;;;0.30;0.30;;;;;;;;;;5087093;28;20211;-65
2021/03/19 13:16:30;;;;;;;0.05;0.05;;;;;;;;;;5068623;28;20244;-65
2021/03/19 13:18:56;;;;;;;0.00;0.00;;;;;;;;;;5069625;28;20171;-65
2021/03/19 13:21:22;;;;;;;0.10;0.10;;;;;;;;;;5051984;28;20184;-65
2021/03/19 13:23:49;;;;;;;0.00;0.00;;;;;;;;;;5073105;28;20185;-64
2021/03/19 13:26:15;;;;;;;0.30;0.30;;;;;;;;;;5051714;28;20172;-65
2021/03/19 13:28:41;;;;;;;0.00;0.00;;;;;;;;;;5068903;28;20661;-65
2021/03/19 13:31:07;;;;;;;0.25;0.25;;;;;;;;;;5066331;28;20189;-65
2021/03/19 13:33:34;;;;;;;0.20;0.10;;;;;;;;;;5068694;28;20172;-65
2021/03/19 13:36:01;;;;;;;0.00;0.00;;;;;;;;;;5068819;28;20160;-65
2021/03/19 13:38:30;;;;;;;0.05;0.05;;;;;;;;;;5067643;28;20204;-65
2021/03/19 13:40:58;;;;;;;0.10;0.10;;;;;;;;;;5068538;28;20222;-66
2021/03/19 13:43:25;;;;;;;0.20;0.20;;;;;;;;;;5068719;28;20169;-65
2021/03/19 13:45:53;;;;;;;0.63;0.63;;;;;;;;;;5051131;28;20183;-65
2021/03/19 13:48:19;;;;;;;0.30;0.30;;;;;;;;;;5067593;28;20254;-65
2021/03/19 13:50:46;;;;;;;1.08;1.00;;;;;;;;;;5068527;28;20204;-66
2021/03/19 13:53:12;;;;;;;0.10;0.10;;;;;;;;;;5068683;28;20167;-66
2021/03/19 13:55:38;;;;;;;0.03;0.03;;;;;;;;;;5068842;28;20194;-66
2021/03/19 13:58:04;;;;;;;0.30;0.30;;;;;;;;;;5068775;28;20626;-65
2021/03/19 14:00:35;;;;;;;0.75;0.40;;;;;;;;;;5067705;28;20200;-66
2021/03/19 14:03:03;;;;;;;0.10;0.10;;;;;;;;;;5068500;28;20228;-66
2021/03/19 14:05:32;;;;;;;2.17;0.65;;;;;;;;;;5068066;28;20178;-66
2021/03/19 14:07:59;;;;;;;0.10;0.10;;;;;;;;;;5085442;28;20187;-65
2021/03/19 14:10:30;;;;;;;0.00;0.00;;;;;;;;;;5088039;28;20234;-65
2021/03/19 14:12:57;;;;;;;1.13;0.82;;;;;;;;;;5088998;28;20217;-65
2021/03/19 14:15:26;;;;;;;0.20;0.20;;;;;;;;;;5088890;28;20171;-65
2021/03/19 14:17:53;;;;;;;0.10;0.10;;;;;;;;;;5070724;28;20179;-65
2021/03/19 14:20:27;;;;;;;0.08;0.08;;;;;;;;;;5088143;28;20199;-65
2021/03/19 14:22:54;;;;;;;0.10;0.10;;;;;;;;;;5088885;28;20164;-66
2021/03/19 14:25:20;;;;;;;0.13;0.13;;;;;;;;;;5088929;28;20152;-66
2021/03/19 14:27:47;;;;;;;0.10;0.10;;;;;;;;;;5088814;28;20213;-66
2021/03/19 14:30:14;;;;;;;0.63;0.47;;;;;;;;;;5070590;28;20365;-65
2021/03/19 14:32:40;;;;;;;0.10;0.10;;;;;;;;;;5087629;28;20176;-66
2021/03/19 14:35:07;;;;;;;0.10;0.10;;;;;;;;;;5088999;28;20156;-66
2021/03/19 14:37:34;;;;;;;0.10;0.10;;;;;;;;;;5088183;28;20144;-66
2021/03/19 14:40:00;;;;;;;0.70;0.70;;;;;;;;;;5086512;28;20196;-66
2021/03/19 14:42:27;;;;;;;0.03;0.03;;;;;;;;;;5049898;28;20177;-66
2021/03/19 14:44:53;;;;;;;0.10;0.10;;;;;;;;;;5068318;28;20179;-65
2021/03/19 14:47:19;;;;;;;0.15;0.15;;;;;;;;;;5050263;28;20228;-66
2021/03/19 14:49:45;;;;;;;0.30;0.30;;;;;;;;;;5050789;28;20208;-65
2021/03/19 14:52:11;;;;;;;0.10;0.10;;;;;;;;;;5068478;28;20196;-65
2021/03/19 14:54:37;;;;;;;0.10;0.10;;;;;;;;;;5068481;28;20168;-66
2021/03/19 14:57:04;;;;;;;0.35;0.35;;;;;;;;;;5068564;28;20162;-66
2021/03/19 14:59:30;;;;;;;0.00;0.00;;;;;;;;;;5068303;28;20157;-66
2021/03/19 15:01:56;;;;;;;0.10;0.10;;;;;;;;;;5068398;28;20219;-66